Time;durP1;ratioP1;P1;durP2;ratioP2;P2;SDS_P1;SDS_P2;PMS_P1;PMS_P2;Temp;Humidity;BMP_temperature;BMP_pressure;BME280_temperature;BME280_humidity;BME280_pressure;Samples;Min_cycle;Max_cycle;Signal;HPM_P1;HPM_P2
2021/08/06 00:02:28;;;;;;;;;30.00;29.50;;;;;25.59;61.48;100575.75;4923001;29;8861;-80
2021/08/06 00:05:24;;;;;;;;;38.75;34.75;;;;;25.46;60.04;100572.81;4936649;29;8856;-79
2021/08/06 00:07:52;;;;;;;;;40.50;35.25;;;;;25.25;59.97;100581.72;4936642;29;8941;-79
2021/08/06 00:10:48;;;;;;;;;44.00;38.25;;;;;25.05;60.59;100573.19;4923233;29;8864;-80
2021/08/06 00:13:43;;;;;;;;;34.00;32.25;;;;;25.31;61.92;100577.16;4923067;29;9010;-80
2021/08/06 00:16:40;;;;;;;;;36.25;33.25;;;;;25.27;62.34;100584.91;4934897;29;8880;-79
2021/08/06 00:19:36;;;;;;;;;40.00;35.25;;;;;25.33;61.76;100592.47;4935058;29;8853;-80
2021/08/06 00:22:32;;;;;;;;;39.75;35.50;;;;;25.25;61.63;100599.50;4923307;29;8884;-79
2021/08/06 00:25:27;;;;;;;;;42.75;37.50;;;;;25.61;61.43;100599.59;4922898;29;8931;-79
2021/08/06 00:28:04;;;;;;;;;37.00;33.25;;;;;25.71;61.31;100601.41;4936361;29;8932;-80
2021/08/06 00:31:00;;;;;;;;;44.50;38.50;;;;;25.76;60.35;100589.59;4935307;29;8869;-79
2021/08/06 00:33:57;;;;;;;;;43.75;38.00;;;;;25.75;60.92;100581.50;4935227;29;9039;-80
2021/08/06 00:36:53;;;;;;;;;60.50;50.50;;;;;25.51;59.67;100594.94;4935015;29;8872;-81
2021/08/06 00:39:48;;;;;;;;;46.75;40.25;;;;;25.59;61.15;100599.19;4910975;29;8849;-81
2021/08/06 00:42:44;;;;;;;;;49.50;42.25;;;;;25.75;60.83;100593.63;4923827;29;8837;-80
2021/08/06 00:45:39;;;;;;;;;48.75;41.50;;;;;25.95;60.30;100593.59;4922118;29;8849;-80
2021/08/06 00:48:35;;;;;;;;;56.50;46.50;;;;;25.66;60.51;100592.59;4934261;29;8860;-81
2021/08/06 00:51:31;;;;;;;;;61.00;49.75;;;;;25.67;61.06;100583.66;4936841;29;8852;-81
2021/08/06 00:54:27;;;;;;;;;54.75;46.00;;;;;25.81;60.90;100582.59;4935593;29;8844;-81
2021/08/06 00:57:22;;;;;;;;;66.67;56.00;;;;;25.67;59.80;100580.03;4917247;29;8851;-81
2021/08/06 01:00:18;;;;;;;;;59.50;48.00;;;;;25.54;60.74;100584.78;4903580;29;9306;-81
2021/08/06 01:03:39;;;;;;;;;57.00;48.00;;;;;25.82;61.21;100592.69;4916413;29;8827;-81
2021/08/06 01:06:50;;;;;;;;;62.00;51.00;;;;;25.69;60.82;100592.53;4916153;29;9669;-81
2021/08/06 01:09:24;;;;;;;;;56.50;47.50;;;;;25.63;61.78;100590.66;4917375;29;8863;-81
2021/08/06 01:11:55;;;;;;;;;67.00;56.67;;;;;25.39;61.36;100582.25;4917177;29;8879;-81
2021/08/06 01:14:52;;;;;;;;;59.25;49.00;;;;;25.55;62.17;100597.69;4904787;29;9109;-81
2021/08/06 01:17:50;;;;;;;;;72.00;63.67;;;;;25.63;60.68;100596.31;4918804;29;8863;-81
2021/08/06 01:20:37;;;;;;;;;61.33;51.00;;;;;25.19;62.72;100592.75;4920314;29;9530;-81
2021/08/06 01:23:36;;;;;;;;;67.67;56.00;;;;;25.32;62.34;100596.53;4919784;29;9092;-81
2021/08/06 01:26:33;;;;;;;;;72.25;64.00;;;;;25.23;62.09;100594.28;4920089;29;9250;-81
2021/08/06 01:29:29;;;;;;;;;69.75;56.75;;;;;25.04;63.87;100586.53;4907749;29;10642;-81
2021/08/06 01:31:57;;;;;;;;;69.50;58.50;;;;;25.29;63.48;100586.06;4919812;29;9698;-81
2021/08/06 01:34:53;;;;;;;;;76.25;71.00;;;;;25.26;61.93;100578.44;4906972;29;9653;-82
2021/08/06 01:37:49;;;;;;;;;70.00;59.50;;;;;25.54;62.54;100582.75;4919000;29;10168;-81
2021/08/06 01:40:57;;;;;;;;;74.50;67.00;;;;;25.65;62.01;100583.31;4906352;29;9778;-81
2021/08/06 01:44:19;;;;;;;;;79.75;77.50;;;;;25.40;61.90;100577.38;4919501;29;9711;-83
2021/08/06 01:47:10;;;;;;;;;70.50;61.50;;;;;25.33;63.08;100567.00;4920315;29;11096;-81
2021/08/06 01:49:44;;;;;;;;;78.00;74.25;;;;;25.13;62.16;100555.66;4903644;29;9753;-82
2021/08/06 01:52:47;;;;;;;;;90.50;87.25;;;;;24.99;63.01;100555.09;4921235;29;10274;-82
2021/08/06 01:55:53;;;;;;;;;84.50;80.25;;;;;24.93;63.15;100561.25;4930361;29;11358;-82
2021/08/06 01:58:54;;;;;;;;;79.75;76.75;;;;;24.96;64.23;100559.59;4938661;29;11735;-82
2021/08/06 02:01:50;;;;;;;;;84.00;81.50;;;;;25.05;63.78;100561.88;4924767;29;10809;-81
2021/08/06 02:04:47;;;;;;;;;72.25;64.50;;;;;24.83;61.83;100556.59;4925343;29;10968;-81
2021/08/06 02:07:41;;;;;;;;;78.50;75.75;;;;;24.58;64.02;100554.22;4924857;29;10390;-81
2021/08/06 02:10:38;;;;;;;;;76.25;70.25;;;;;24.64;64.19;100555.31;4938179;29;10331;-81
2021/08/06 02:13:35;;;;;;;;;77.25;72.50;;;;;24.74;64.13;100559.19;4925166;29;10639;-81
2021/08/06 02:16:31;;;;;;;;;76.75;71.50;;;;;24.74;64.66;100550.69;4937045;29;10675;-81
2021/08/06 02:19:00;;;;;;;;;76.25;68.00;;;;;24.72;65.18;100549.53;4938384;29;10585;-80
2021/08/06 02:21:32;;;;;;;;;72.25;64.75;;;;;24.81;63.94;100552.59;4905904;29;10691;-80
2021/08/06 02:24:31;;;;;;;;;75.25;69.25;;;;;25.11;64.50;100549.63;4937745;29;10246;-80
2021/08/06 02:27:30;;;;;;;;;75.00;69.25;;;;;24.92;62.94;100551.19;4937879;29;10318;-81
2021/08/06 02:30:01;;;;;;;;;73.00;65.25;;;;;24.48;65.02;100558.03;4937411;29;10005;-80
2021/08/06 02:32:57;;;;;;;;;64.00;52.67;;;;;24.15;64.09;100539.94;4936852;29;10079;-80
2021/08/06 02:35:39;;;;;;;;;66.33;53.33;;;;;24.05;66.09;100533.25;4923861;29;9417;-79
2021/08/06 02:38:35;;;;;;;;;52.75;44.75;;;;;23.94;65.22;100529.00;4924562;29;9525;-80
2021/08/06 02:41:32;;;;;;;;;65.00;53.67;;;;;23.91;66.33;100532.66;4937004;29;8860;-79
2021/08/06 02:44:29;;;;;;;;;56.75;47.50;;;;;23.80;65.80;100542.09;4937492;29;9207;-80
2021/08/06 02:47:24;;;;;;;;;61.67;50.00;;;;;23.87;66.05;100546.03;4924319;29;8857;-80
2021/08/06 02:50:20;;;;;;;;;56.50;47.50;;;;;23.78;66.74;100543.75;4923883;29;8970;-79
2021/08/06 02:53:15;;;;;;;;;67.00;54.00;;;;;23.96;66.42;100552.75;4937987;29;8876;-79
2021/08/06 02:56:11;;;;;;;;;59.00;48.75;;;;;24.28;65.42;100552.25;4937633;29;9019;-78
2021/08/06 02:58:40;;;;;;;;;59.67;49.00;;;;;24.41;65.32;100558.16;4937380;29;8957;-79
2021/08/06 03:01:35;;;;;;;;;62.33;51.33;;;;;24.63;64.62;100550.91;4936624;29;9323;-79
2021/08/06 03:04:17;;;;;;;;;70.75;58.50;;;;;24.08;65.45;100546.53;4936974;29;9271;-79
2021/08/06 03:07:12;;;;;;;;;68.67;53.00;;;;;23.94;66.40;100545.94;4924303;29;9631;-79
2021/08/06 03:10:08;;;;;;;;;65.00;53.00;;;;;24.43;66.14;100546.41;4937593;29;9452;-79
2021/08/06 03:12:36;;;;;;;;;66.00;55.00;;;;;24.74;64.92;100541.41;4937715;29;8989;-79
2021/08/06 03:15:32;;;;;;;;;65.67;54.00;;;;;24.87;64.47;100543.19;4935902;29;9102;-79
2021/08/06 03:18:27;;;;;;;;;67.33;57.00;;;;;24.84;64.38;100527.06;4935910;29;8991;-79
2021/08/06 03:20:56;;;;;;;;;66.67;55.67;;;;;25.10;63.55;100531.06;4937462;29;9010;-78
2021/08/06 03:23:51;;;;;;;;;68.33;56.00;;;;;25.05;63.45;100528.72;4935888;29;9077;-79
2021/08/06 03:26:47;;;;;;;;;66.00;55.00;;;;;24.91;64.30;100523.31;4936670;29;9263;-79
2021/08/06 03:29:43;;;;;;;;;72.00;64.50;;;;;24.70;64.11;100527.34;4923281;29;9526;-79
2021/08/06 03:32:40;;;;;;;;;71.75;63.50;;;;;24.71;64.26;100516.84;4935737;29;9867;-79
2021/08/06 03:35:27;;;;;;;;;67.33;55.33;;;;;24.55;65.39;100521.16;4922564;29;9870;-80
2021/08/06 03:38:24;;;;;;;;;66.67;55.67;;;;;24.59;64.79;100515.44;4936211;29;9316;-80
2021/08/06 03:41:21;;;;;;;;;67.33;55.00;;;;;24.51;65.80;100517.59;4936081;29;9346;-79
2021/08/06 03:44:17;;;;;;;;;66.67;55.00;;;;;24.56;65.09;100519.13;4923256;29;9313;-80
2021/08/06 03:47:14;;;;;;;;;68.33;55.00;;;;;24.22;66.18;100514.41;4924106;29;8991;-81
2021/08/06 03:49:43;;;;;;;;;65.33;53.00;;;;;24.62;65.38;100521.03;4920102;29;9251;-81
2021/08/06 03:52:38;;;;;;;;;64.00;52.00;;;;;24.63;65.25;100535.97;4926390;28;9083;-80
2021/08/06 03:55:34;;;;;;;;;60.75;49.50;;;;;24.65;65.52;100525.00;4944995;28;8940;-78
2021/08/06 03:58:17;;;;;;;;;64.00;52.00;;;;;24.75;65.60;100526.84;4938960;28;8846;-80
2021/08/06 04:01:15;;;;;;;;;67.00;54.33;;;;;24.88;63.77;100524.19;4942829;28;8936;-81
2021/08/06 04:04:10;;;;;;;;;63.00;51.00;;;;;25.09;64.18;100535.13;4943632;28;9152;-81
2021/08/06 04:07:07;;;;;;;;;65.75;52.50;;;;;25.07;63.90;100526.25;4927589;29;8867;-82
2021/08/06 04:09:36;;;;;;;;;60.00;49.00;;;;;25.15;64.03;100526.91;4927669;29;8885;-80
2021/08/06 04:12:35;;;;;;;;;61.25;50.00;;;;;25.29;63.57;100514.50;4912587;29;8837;-81
2021/08/06 04:15:31;;;;;;;;;61.50;49.50;;;;;25.43;63.50;100515.00;4913783;29;9584;-80
2021/08/06 04:17:59;;;;;;;;;60.50;49.50;;;;;25.57;63.00;100524.44;4928750;29;8879;-79
2021/08/06 04:20:57;;;;;;;;;65.25;51.75;;;;;25.59;62.78;100511.44;4923469;29;8883;-81
2021/08/06 04:23:55;;;;;;;;;59.00;48.75;;;;;25.38;63.05;100500.56;4924814;29;8847;-80
2021/08/06 04:26:24;;;;;;;;;63.00;50.25;;;;;25.54;63.14;100494.97;4930086;29;8878;-79
2021/08/06 04:29:19;;;;;;;;;60.50;50.25;;;;;25.60;62.44;100495.22;4924998;29;8869;-81
2021/08/06 04:32:15;;;;;;;;;64.75;52.00;;;;;25.52;61.69;100486.09;4924099;29;8871;-80
2021/08/06 04:35:14;;;;;;;;;64.00;52.75;;;;;25.48;62.87;100488.22;4915556;29;8848;-80
2021/08/06 04:37:49;;;;;;;;;65.00;53.67;;;;;25.21;61.99;100494.06;4934796;29;8859;-79
2021/08/06 04:40:45;;;;;;;;;61.67;50.67;;;;;25.29;62.62;100486.22;4926323;29;9044;-79
2021/08/06 04:43:42;;;;;;;;;67.33;56.67;;;;;25.16;62.78;100483.25;4913158;29;8948;-79
2021/08/06 04:46:11;;;;;;;;;65.67;54.33;;;;;25.22;62.62;100482.28;4924044;29;9270;-78
2021/08/06 04:49:07;;;;;;;;;67.67;56.67;;;;;25.14;62.34;100494.19;4926402;29;9427;-78
2021/08/06 04:52:04;;;;;;;;;63.00;50.75;;;;;25.22;62.61;100498.47;4911426;29;9264;-78
2021/08/06 04:54:59;;;;;;;;;62.50;51.00;;;;;25.07;63.44;100505.66;4926335;29;8856;-79
2021/08/06 04:57:55;;;;;;;;;59.50;48.75;;;;;24.86;63.75;100507.66;4921502;29;8865;-79
2021/08/06 05:01:41;;;;;;;;;55.00;45.75;;;;;25.34;62.93;100505.50;4921522;29;8958;-83
2021/08/06 05:04:36;;;;;;;;;61.00;49.00;;;;;25.67;63.18;100506.41;4909540;29;8859;-80
2021/08/06 05:07:20;;;;;;;;;60.00;48.75;;;;;25.88;62.06;100505.94;4924103;29;9520;-81
2021/08/06 05:10:16;;;;;;;;;47.50;41.00;;;;;25.85;60.44;100506.84;4927566;29;8872;-82
2021/08/06 05:13:12;;;;;;;;;57.25;46.25;;;;;25.95;61.35;100502.94;4922357;29;8828;-82
2021/08/06 05:16:08;;;;;;;;;46.50;40.00;;;;;26.01;60.02;100500.38;4915918;29;8848;-82
2021/08/06 05:19:04;;;;;;;;;53.75;45.00;;;;;26.26;60.92;100511.91;4907660;29;8927;-82
2021/08/06 05:21:59;;;;;;;;;40.75;36.00;;;;;26.30;58.09;100500.47;4924500;29;8876;-83
2021/08/06 05:24:55;;;;;;;;;50.50;43.00;;;;;26.50;59.64;100495.53;4894373;29;8857;-81
2021/08/06 05:27:38;;;;;;;;;48.50;41.50;;;;;26.65;58.82;100498.78;4923394;29;8911;-81
2021/08/06 05:30:33;;;;;;;;;41.75;36.50;;;;;26.83;58.41;100499.06;4921331;29;8958;-81
2021/08/06 05:33:29;;;;;;;;;46.00;40.00;;;;;26.98;58.68;100499.47;4905547;29;8867;-83
2021/08/06 05:36:10;;;;;;;;;44.50;38.25;;;;;27.10;56.59;100509.34;4921742;29;8870;-82
2021/08/06 05:38:38;;;;;;;;;40.20;34.80;;;;;27.20;55.71;100511.06;4938577;29;8872;-81
2021/08/06 05:41:33;;;;;;;;;46.00;38.40;;;;;27.32;56.90;100510.31;4917821;29;9658;-82
2021/08/06 05:44:29;;;;;;;;;43.25;37.50;;;;;27.48;55.78;100511.47;4919840;29;9610;-83
2021/08/06 05:47:25;;;;;;;;;42.80;37.20;;;;;27.46;54.61;100508.28;4915646;29;8868;-82
2021/08/06 05:49:53;;;;;;;;;42.75;37.00;;;;;27.53;54.57;100502.38;4903459;29;8937;-82
2021/08/06 05:52:52;;;;;;;;;36.50;33.50;;;;;27.65;55.60;100499.56;4920435;29;9609;-82
2021/08/06 05:55:21;;;;;;;;;45.75;39.00;;;;;27.73;54.90;100499.38;4921084;29;8868;-80
2021/08/06 05:57:48;;;;;;;;;47.75;40.75;;;;;27.84;55.05;100497.78;4918798;29;8848;-81
2021/08/06 06:00:44;;;;;;;;;48.00;40.75;;;;;27.89;55.51;100490.72;4919961;29;8844;-77
2021/08/06 06:03:40;;;;;;;;;52.00;42.50;;;;;28.05;55.62;100487.75;4905101;29;8868;-77
2021/08/06 06:06:35;;;;;;;;;49.00;41.50;;;;;28.13;54.81;100476.94;4933993;29;9629;-78
2021/08/06 06:09:31;;;;;;;;;42.00;36.20;;;;;28.34;54.37;100464.09;4937080;29;8943;-78
2021/08/06 06:12:26;;;;;;;;;37.20;34.00;;;;;28.37;54.67;100464.00;4924873;29;8856;-78
2021/08/06 06:14:54;;;;;;;;;36.40;32.60;;;;;28.48;53.08;100458.72;4938566;29;8867;-78
2021/08/06 06:17:50;;;;;;;;;31.40;30.20;;;;;28.68;53.47;100435.66;4937809;29;9018;-78
2021/08/06 06:20:19;;;;;;;;;37.20;33.80;;;;;28.63;53.86;100444.78;4937963;29;8849;-78
2021/08/06 06:22:47;;;;;;;;;41.20;36.00;;;;;28.80;54.19;100443.31;4937746;29;8849;-78
2021/08/06 06:25:43;;;;;;;;;37.40;33.00;;;;;28.94;52.50;100442.03;4937009;29;8945;-78
2021/08/06 06:28:11;;;;;;;;;26.40;26.40;;;;;29.13;51.29;100447.84;4937880;29;8887;-77
2021/08/06 06:31:07;;;;;;;;;26.40;26.40;;;;;29.39;51.13;100443.59;4936539;29;8910;-78
2021/08/06 06:34:03;;;;;;;;;23.40;23.40;;;;;29.71;49.94;100433.00;4940697;29;8923;-78
2021/08/06 06:36:59;;;;;;;;;25.80;25.80;;;;;29.74;48.99;100429.19;4946868;29;8914;-76
2021/08/06 06:39:55;;;;;;;;;22.60;22.60;;;;;30.00;50.06;100424.84;4942083;29;8868;-77
2021/08/06 06:42:51;;;;;;;;;21.40;21.40;;;;;30.19;49.25;100428.53;4943096;29;8872;-78
2021/08/06 06:45:46;;;;;;;;;26.20;23.40;;;;;30.38;48.88;100420.81;4942351;29;8892;-78
2021/08/06 06:48:42;;;;;;;;;21.60;21.60;;;;;30.58;48.90;100414.63;4941480;29;8864;-77
2021/08/06 06:51:38;;;;;;;;;18.60;18.60;;;;;30.72;49.08;100414.00;4936377;29;8841;-77
2021/08/06 06:54:33;;;;;;;;;20.40;20.40;;;;;30.88;48.85;100419.38;4940420;29;8867;-78
2021/08/06 06:57:29;;;;;;;;;14.00;14.00;;;;;31.09;45.63;100414.75;4937714;29;8875;-80
2021/08/06 07:00:12;;;;;;;;;14.80;14.80;;;;;31.22;44.29;100409.69;4936829;29;8883;-79
2021/08/06 07:02:40;;;;;;;;;12.20;12.20;;;;;31.31;45.75;100419.50;4937711;29;8903;-79
2021/08/06 07:05:09;;;;;;;;;12.00;12.00;;;;;31.47;47.74;100422.75;4937234;29;8857;-79
2021/08/06 07:07:37;;;;;;;;;17.00;17.00;;;;;31.55;47.76;100414.63;4940328;29;8856;-78
2021/08/06 07:10:09;;;;;;;;;16.20;16.20;;;;;31.74;49.18;100406.75;4940740;29;8856;-78
2021/08/06 07:12:39;;;;;;;;;15.80;15.80;;;;;31.79;48.78;100406.91;4937533;29;8911;-78
2021/08/06 07:15:08;;;;;;;;;18.60;18.60;;;;;32.00;49.05;100404.25;4936978;29;8868;-78
2021/08/06 07:17:38;;;;;;;;;20.00;20.00;;;;;31.94;50.59;100401.25;4920182;29;8875;-77
2021/08/06 07:20:09;;;;;;;;;25.00;23.80;;;;;31.89;50.47;100401.94;4936776;29;8849;-78
2021/08/06 07:23:05;;;;;;;;;20.20;20.20;;;;;32.30;49.61;100405.94;4936394;29;8919;-77
2021/08/06 07:26:01;;;;;;;;;20.00;20.00;;;;;32.45;49.14;100402.38;4935482;29;8877;-78
2021/08/06 07:28:29;;;;;;;;;18.20;18.20;;;;;32.56;48.70;100402.59;4920041;29;8880;-81
2021/08/06 07:31:29;;;;;;;;;24.00;22.80;;;;;32.78;47.52;100402.22;4936181;29;8873;-77
2021/08/06 07:34:24;;;;;;;;;18.00;18.00;;;;;32.80;46.80;100402.53;4935377;29;8845;-79
2021/08/06 07:37:21;;;;;;;;;21.00;21.00;;;;;32.86;47.46;100404.25;4935450;29;8864;-80
2021/08/06 07:40:16;;;;;;;;;17.00;16.00;;;;;33.04;47.56;100405.31;4935276;29;8872;-78
2021/08/06 07:42:44;;;;;;;;;22.40;22.40;;;;;33.26;46.71;100414.31;4935141;29;8865;-79
2021/08/06 07:45:42;;;;;;;;;18.20;18.00;;;;;33.35;45.41;100405.59;4935347;29;8880;-80
2021/08/06 07:48:10;;;;;;;;;19.60;19.60;;;;;33.43;44.72;100409.69;4936230;29;8877;-79
2021/08/06 07:50:38;;;;;;;;;20.20;20.20;;;;;33.42;44.57;100410.97;4919451;29;8872;-80
2021/08/06 07:53:35;;;;;;;;;20.40;20.40;;;;;33.56;44.54;100414.31;4922404;29;8925;-81
2021/08/06 07:56:30;;;;;;;;;20.40;20.40;;;;;33.72;44.88;100410.91;4935173;29;8873;-80
2021/08/06 07:59:26;;;;;;;;;17.00;17.00;;;;;33.90;44.07;100398.44;4935540;29;8863;-78
2021/08/06 08:02:23;;;;;;;;;16.60;16.60;;;;;33.98;42.75;100406.13;4935145;29;8845;-83
2021/08/06 08:05:20;;;;;;;;;16.80;16.80;;;;;33.99;44.55;100406.91;4934191;29;8880;-79
2021/08/06 08:08:17;;;;;;;;;22.20;21.20;;;;;34.13;43.47;100402.41;4923090;29;8861;-80
2021/08/06 08:11:13;;;;;;;;;17.60;17.60;;;;;34.14;42.63;100413.38;4934512;29;8876;-78
2021/08/06 08:14:09;;;;;;;;;20.20;19.60;;;;;34.26;44.76;100408.53;4935056;29;8880;-79
2021/08/06 08:17:04;;;;;;;;;19.40;19.40;;;;;33.97;44.72;100415.19;4934972;29;8845;-79
2021/08/06 08:20:00;;;;;;;;;20.80;20.80;;;;;33.78;45.73;100403.19;4935264;29;8983;-79
2021/08/06 08:22:48;;;;;;;;;18.00;17.80;;;;;33.80;46.00;100405.53;4935699;29;8865;-78
2021/08/06 08:25:44;;;;;;;;;19.00;19.00;;;;;33.81;46.48;100407.91;4934745;29;8849;-79
2021/08/06 08:28:41;;;;;;;;;16.00;16.00;;;;;33.83;46.20;100398.81;4935069;29;8943;-80
2021/08/06 08:31:08;;;;;;;;;19.40;19.40;;;;;33.64;45.81;100399.06;4919569;29;8875;-82
2021/08/06 08:33:36;;;;;;;;;17.80;17.80;;;;;33.68;46.49;100399.66;4936353;29;8948;-80
2021/08/06 08:36:05;;;;;;;;;17.60;17.60;;;;;33.74;45.99;100406.25;4935078;29;8869;-80
2021/08/06 08:39:00;;;;;;;;;16.00;16.00;;;;;33.91;46.00;100392.19;4903808;29;8868;-80
2021/08/06 08:41:29;;;;;;;;;17.40;17.40;;;;;33.72;45.80;100390.84;4937586;29;9046;-82
2021/08/06 08:44:00;;;;;;;;;17.00;17.00;;;;;33.76;45.32;100394.28;4937669;29;8845;-82
2021/08/06 08:46:30;;;;;;;;;17.40;17.40;;;;;33.58;45.32;100394.53;4920541;29;8864;-79
2021/08/06 08:49:01;;;;;;;;;17.40;17.40;;;;;33.78;44.38;100388.84;4920202;29;8872;-80
2021/08/06 08:51:31;;;;;;;;;13.60;13.60;;;;;33.71;43.79;100386.38;4935787;29;8861;-80
2021/08/06 08:54:13;;;;;;;;;17.20;17.20;;;;;33.86;44.19;100392.06;4921726;29;8868;-81
2021/08/06 08:57:09;;;;;;;;;19.20;17.80;;;;;33.91;44.71;100388.53;4935455;29;8887;-79
2021/08/06 09:00:06;;;;;;;;;18.60;18.60;;;;;34.28;43.89;100389.56;4935314;29;8919;-80
2021/08/06 09:03:07;;;;;;;;;19.40;19.40;;;;;34.45;44.25;100397.59;4934758;29;8887;-82
2021/08/06 09:05:35;;;;;;;;;17.40;17.40;;;;;34.05;43.04;100384.00;4936232;29;8880;-80
2021/08/06 09:08:18;;;;;;;;;16.60;16.60;;;;;33.87;43.46;100377.22;4918964;29;8865;-81
2021/08/06 09:10:48;;;;;;;;;17.80;17.80;;;;;34.07;43.81;100373.63;4936060;29;8932;-81
2021/08/06 09:13:22;;;;;;;;;16.60;16.60;;;;;34.31;44.27;100367.66;4918780;29;8969;-80
2021/08/06 09:16:04;;;;;;;;;16.40;16.40;;;;;34.81;42.48;100370.28;4935420;29;8857;-77
2021/08/06 09:19:11;;;;;;;;;20.80;19.40;;;;;34.99;42.04;100370.00;4934484;29;8873;-79
2021/08/06 09:22:22;;;;;;;;;17.80;17.80;;;;;35.02;42.34;100365.31;4923818;29;8859;-79
2021/08/06 09:25:19;;;;;;;;;18.40;17.20;;;;;35.18;41.28;100350.28;4922398;29;8860;-80
2021/08/06 09:28:15;;;;;;;;;18.20;18.20;;;;;34.68;42.73;100355.56;4934746;29;8841;-80
2021/08/06 09:31:15;;;;;;;;;16.20;16.20;;;;;34.83;42.11;100342.66;4936894;29;8919;-80
2021/08/06 09:33:43;;;;;;;;;18.40;18.40;;;;;34.78;43.77;100340.53;4935571;29;8888;-80
2021/08/06 09:36:13;;;;;;;;;15.80;15.80;;;;;35.18;40.76;100338.78;4936494;29;8865;-80
2021/08/06 09:38:42;;;;;;;;;15.60;15.00;;;;;35.73;41.25;100331.06;4945023;29;8857;-80
2021/08/06 09:41:44;;;;;;;;;19.60;19.60;;;;;35.32;41.08;100326.34;4949982;29;8911;-73
2021/08/06 09:44:41;;;;;;;;;18.00;18.00;;;;;35.48;40.23;100313.41;4941277;29;8875;-71
2021/08/06 09:47:39;;;;;;;;;17.40;17.40;;;;;35.75;39.85;100311.22;4937234;29;8856;-72
2021/08/06 09:50:39;;;;;;;;;16.00;16.00;;;;;35.62;39.21;100303.06;4944898;29;8884;-73
2021/08/06 09:53:37;;;;;;;;;17.00;17.00;;;;;35.77;38.55;100295.03;4937203;29;8872;-75
2021/08/06 09:56:35;;;;;;;;;17.40;17.40;;;;;35.75;38.46;100286.13;4931837;29;8876;-74
2021/08/06 09:59:32;;;;;;;;;15.80;15.80;;;;;35.88;38.98;100271.25;4919586;29;8876;-74
2021/08/06 10:02:33;;;;;;;;;17.40;17.40;;;;;36.32;38.65;100262.00;4918087;29;8839;-73
2021/08/06 10:05:19;;;;;;;;;19.80;19.00;;;;;36.72;37.45;100266.50;4930271;28;9503;-73
2021/08/06 10:07:53;;;;;;;;;16.80;16.80;;;;;36.67;37.66;100258.66;4936892;29;9571;-74
2021/08/06 10:10:36;;;;;;;;;23.40;23.40;;;;;36.94;37.38;100254.22;4920803;29;9732;-74
2021/08/06 10:13:11;;;;;;;;;17.60;17.60;;;;;36.88;36.98;100247.66;4918310;29;8869;-73
2021/08/06 10:16:07;;;;;;;;;25.80;25.80;;;;;37.01;38.00;100252.91;4936484;29;8873;-72
2021/08/06 10:19:02;;;;;;;;;33.60;31.40;;;;;37.02;35.96;100251.59;4935927;29;8853;-72
2021/08/06 10:22:00;;;;;;;;;25.40;25.40;;;;;37.25;34.38;100241.59;4930987;29;8983;-74
2021/08/06 10:24:56;;;;;;;;;20.60;20.60;;;;;37.41;33.88;100231.34;4931766;29;8860;-73
2021/08/06 10:27:53;;;;;;;;;40.40;35.20;;;;;37.80;34.97;100225.47;4935593;29;8942;-72
2021/08/06 10:30:48;;;;;;;;;20.80;20.80;;;;;37.64;35.98;100225.50;4936181;29;8837;-74
2021/08/06 10:34:13;;;;;;;;;17.40;17.40;;;;;37.82;33.88;100225.72;4937295;29;8880;-75
2021/08/06 10:37:09;;;;;;;;;19.40;19.20;;;;;37.18;34.84;100224.03;4935736;29;8830;-74
2021/08/06 10:40:05;;;;;;;;;18.00;18.00;;;;;37.55;33.29;100210.06;4936887;29;8873;-73
2021/08/06 10:42:33;;;;;;;;;18.40;18.40;;;;;37.76;33.45;100218.38;4936880;29;8967;-74
2021/08/06 10:45:02;;;;;;;;;17.80;17.80;;;;;37.56;36.39;100217.38;4936988;29;8885;-74
2021/08/06 10:47:58;;;;;;;;;19.80;19.80;;;;;37.36;36.30;100202.56;4917995;29;8855;-75
2021/08/06 10:50:26;;;;;;;;;23.60;22.60;;;;;37.14;37.09;100195.50;4928976;29;8854;-74
2021/08/06 10:53:24;;;;;;;;;18.20;18.20;;;;;37.27;34.99;100198.63;4934754;28;8983;-74
2021/08/06 10:56:21;;;;;;;;;22.40;22.40;;;;;37.33;35.33;100187.06;4933819;29;8857;-75
2021/08/06 10:59:23;;;;;;;;;19.60;19.60;;;;;37.72;35.80;100181.13;4934754;29;8955;-73
2021/08/06 11:02:04;;;;;;;;;25.80;24.60;;;;;37.59;36.17;100172.28;4936665;29;8873;-74
2021/08/06 11:05:28;;;;;;;;;18.60;18.20;;;;;38.02;34.15;100166.81;4935853;29;8829;-73
2021/08/06 11:08:45;;;;;;;;;19.60;19.60;;;;;37.86;33.29;100153.28;4936301;29;8849;-72
2021/08/06 11:11:54;;;;;;;;;17.60;17.60;;;;;37.52;34.97;100152.66;4940591;29;8992;-73
2021/08/06 11:14:50;;;;;;;;;21.00;21.00;;;;;37.46;36.07;100161.34;4916055;29;8970;-73
2021/08/06 11:17:47;;;;;;;;;16.00;16.00;;;;;36.98;34.97;100161.75;4918854;29;8954;-74
2021/08/06 11:20:20;;;;;;;;;15.00;15.00;;;;;37.00;34.49;100142.63;4928829;29;8875;-73
2021/08/06 11:23:16;;;;;;;;;30.40;24.80;;;;;37.25;35.05;100146.44;4926576;29;8873;-74
2021/08/06 11:26:12;;;;;;;;;16.60;16.60;;;;;37.50;34.75;100135.13;4941574;29;9011;-73
2021/08/06 11:29:13;;;;;;;;;13.80;13.80;;;;;37.34;34.00;100141.72;4953049;28;8878;-73
2021/08/06 11:32:15;;;;;;;;;15.80;15.80;;;;;37.75;33.88;100147.56;4942078;29;8849;-73
2021/08/06 11:35:11;;;;;;;;;19.20;15.60;;;;;37.89;35.71;100139.91;4916920;29;8871;-73
2021/08/06 11:38:11;;;;;;;;;14.80;14.80;;;;;38.04;33.07;100137.44;4916191;29;8969;-73
2021/08/06 11:40:50;;;;;;;;;13.20;13.20;;;;;38.03;32.45;100121.41;4917825;29;9605;-74
2021/08/06 11:43:46;;;;;;;;;16.60;16.60;;;;;37.93;32.28;100129.63;4931916;29;8854;-73
2021/08/06 11:46:50;;;;;;;;;17.20;17.20;;;;;37.96;32.16;100125.69;4916806;29;9040;-72
2021/08/06 11:49:51;;;;;;;;;15.80;15.80;;;;;37.97;32.21;100117.81;4941054;28;8847;-74
2021/08/06 11:52:49;;;;;;;;;13.40;13.40;;;;;37.77;32.76;100125.50;4942098;28;8847;-75
2021/08/06 11:55:48;;;;;;;;;15.80;15.60;;;;;38.02;33.68;100119.84;4942435;28;8870;-73
2021/08/06 11:58:31;;;;;;;;;18.00;17.40;;;;;37.88;34.40;100121.00;4937032;29;8843;-72
2021/08/06 12:01:27;;;;;;;;;18.40;18.40;;;;;37.74;32.10;100117.94;4934812;29;8835;-72
2021/08/06 12:04:27;;;;;;;;;18.80;18.80;;;;;37.75;33.47;100107.16;4935216;29;9707;-73
2021/08/06 12:07:25;;;;;;;;;16.80;16.80;;;;;37.69;32.43;100107.19;4934880;29;8947;-73
2021/08/06 12:10:26;;;;;;;;;21.00;21.00;;;;;37.97;32.32;100100.47;4933875;29;8877;-73
2021/08/06 12:13:24;;;;;;;;;18.80;18.80;;;;;38.43;31.44;100101.69;4941102;28;8976;-72
2021/08/06 12:16:38;;;;;;;;;17.80;17.80;;;;;38.66;31.19;100103.81;4925292;29;8845;-72
2021/08/06 12:19:34;;;;;;;;;18.80;18.80;;;;;38.24;32.90;100093.72;4935202;29;8857;-73
2021/08/06 12:22:29;;;;;;;;;14.20;14.20;;;;;38.11;31.68;100088.56;4935628;29;8845;-73
2021/08/06 12:25:27;;;;;;;;;13.00;13.00;;;;;38.37;32.27;100075.75;4922225;29;8868;-73
2021/08/06 12:28:23;;;;;;;;;11.00;11.00;;;;;38.19;31.45;100070.63;4937502;28;8979;-74
2021/08/06 12:31:23;;;;;;;;;13.20;13.20;;;;;37.97;31.50;100074.50;4953682;28;8863;-74
2021/08/06 12:34:39;;;;;;;;;13.00;13.00;;;;;38.43;31.64;100075.69;4941606;29;8962;-73
2021/08/06 12:37:37;;;;;;;;;14.20;13.20;;;;;39.01;29.99;100063.75;4951538;29;8915;-73
2021/08/06 12:40:44;;;;;;;;;12.80;12.80;;;;;39.27;28.42;100049.53;4937929;29;9672;-73
2021/08/06 12:43:19;;;;;;;;;13.60;13.60;;;;;39.70;30.22;100046.53;4946129;29;8886;-73
2021/08/06 12:46:14;;;;;;;;;4.40;4.20;;;;;39.82;29.15;100049.25;4951817;29;8868;-73
2021/08/06 12:49:10;;;;;;;;;13.00;13.00;;;;;40.39;28.25;100047.72;4940395;29;8862;-73
2021/08/06 12:52:00;;;;;;;;;14.00;14.00;;;;;40.36;28.86;100045.19;4903439;29;8875;-72
2021/08/06 12:55:07;;;;;;;;;13.00;13.00;;;;;40.82;27.08;100056.13;4916118;29;8905;-73
2021/08/06 12:57:41;;;;;;;;;12.00;12.00;;;;;40.73;27.88;100044.22;4946670;29;8869;-73
2021/08/06 13:00:28;;;;;;;;;13.20;12.40;;;;;40.93;26.79;100037.75;4951268;29;8858;-73
2021/08/06 13:03:26;;;;;;;;;11.60;11.60;;;;;40.94;25.91;100024.81;4936651;29;8850;-74
2021/08/06 13:06:03;;;;;;;;;11.60;11.60;;;;;41.01;27.23;100018.34;4935807;29;8888;-73